createdAt,value
2018-06-03T00:02:13.703Z,15.50
2018-06-03T00:05:16.211Z,15.60
2018-06-03T00:08:19.474Z,15.70
2018-06-03T00:11:21.959Z,15.70
2018-06-03T00:14:24.470Z,15.70
2018-06-03T00:17:26.947Z,15.70
2018-06-03T00:24:55.818Z,15.70
2018-06-03T00:27:58.915Z,15.60
2018-06-03T00:31:01.971Z,15.60
2018-06-03T00:34:05.054Z,15.50
2018-06-03T00:37:08.150Z,15.60
2018-06-03T00:40:11.234Z,15.50
2018-06-03T00:46:17.186Z,15.60
2018-06-03T00:49:20.273Z,15.50
2018-06-03T00:52:23.353Z,15.50
2018-06-03T00:55:26.414Z,15.40
2018-06-03T00:58:29.502Z,15.40
2018-06-03T01:01:32.589Z,15.50
2018-06-03T01:04:35.666Z,15.60
2018-06-03T01:07:38.750Z,15.60
2018-06-03T01:10:41.837Z,15.60
2018-06-03T01:19:50.642Z,15.50
2018-06-03T01:22:53.741Z,15.50
2018-06-03T01:25:56.829Z,15.40
2018-06-03T01:28:59.889Z,15.50
2018-06-03T01:32:02.993Z,15.50
2018-06-03T01:35:06.074Z,15.50
2018-06-03T01:38:09.148Z,15.50
2018-06-03T01:44:15.087Z,15.40
2018-06-03T01:47:18.253Z,15.50
2018-06-03T01:50:21.347Z,15.40
2018-06-03T01:53:24.445Z,15.40
2018-06-03T01:56:27.525Z,15.40
2018-06-03T01:59:30.617Z,15.40
2018-06-03T02:02:33.738Z,15.20
2018-06-03T02:05:36.834Z,15.00
2018-06-03T02:08:39.933Z,14.90
2018-06-03T02:11:43.029Z,14.90
2018-06-03T02:14:46.098Z,15.00
2018-06-03T02:17:49.198Z,15.10
2018-06-03T02:20:52.274Z,15.10
2018-06-03T02:23:55.398Z,15.20
2018-06-03T02:26:58.461Z,15.30
2018-06-03T02:30:01.535Z,15.40
2018-06-03T02:33:04.683Z,15.50
2018-06-03T02:36:07.762Z,15.60
2018-06-03T02:39:11.363Z,15.60
2018-06-03T02:42:14.430Z,15.70
2018-06-03T02:45:17.513Z,15.70
2018-06-03T02:48:20.610Z,15.70
2018-06-03T02:51:24.076Z,15.70
2018-06-03T02:54:27.162Z,15.70
2018-06-03T02:57:30.256Z,15.60
2018-06-03T03:03:36.238Z,15.30
2018-06-03T03:06:39.327Z,15.20
2018-06-03T03:09:42.390Z,15.10
2018-06-03T03:12:45.483Z,15.00
2018-06-03T03:15:48.593Z,14.90
2018-06-03T03:18:51.693Z,14.70
2018-06-03T03:21:54.790Z,14.70
2018-06-03T03:24:57.845Z,14.80
2018-06-03T03:28:00.937Z,14.80
2018-06-03T03:34:06.914Z,14.90
2018-06-03T03:37:10.024Z,15.00
2018-06-03T03:40:13.102Z,15.10
2018-06-03T03:43:16.396Z,15.20
2018-06-03T03:46:19.486Z,15.30
2018-06-03T03:49:22.565Z,15.40
2018-06-03T03:52:25.699Z,15.50
2018-06-03T03:55:28.754Z,15.50
2018-06-03T03:58:31.858Z,15.50
2018-06-03T04:01:34.957Z,15.50
2018-06-03T04:07:40.897Z,15.80
2018-06-03T04:10:44.030Z,15.90
2018-06-03T04:13:47.129Z,16.00
2018-06-03T04:16:50.222Z,16.00
2018-06-03T04:19:53.297Z,16.30
2018-06-03T04:25:59.208Z,16.60
2018-06-03T04:29:02.301Z,16.70
2018-06-03T04:32:05.406Z,16.80
2018-06-03T04:35:08.473Z,17.00
2018-06-03T04:38:11.566Z,17.40
2018-06-03T04:41:14.713Z,17.80
2018-06-03T04:44:17.753Z,18.30
2018-06-03T04:47:20.849Z,18.70
2018-06-03T04:50:23.931Z,19.00
2018-06-03T04:53:27.050Z,19.30
2018-06-03T04:56:30.124Z,19.40
2018-06-03T04:59:33.187Z,19.40
2018-06-03T05:02:36.318Z,19.60
2018-06-03T05:05:39.413Z,19.70
2018-06-03T05:08:42.505Z,19.70
2018-06-03T05:11:45.596Z,19.80
2018-06-03T05:14:48.662Z,19.80
2018-06-03T05:17:51.754Z,19.80
2018-06-03T05:20:54.825Z,19.60
2018-06-03T05:30:03.665Z,19.60
2018-06-03T05:33:06.741Z,19.90
2018-06-03T05:36:09.837Z,20.20
2018-06-03T05:39:12.943Z,20.50
2018-06-03T05:42:16.049Z,20.70
2018-06-03T05:45:19.118Z,20.80
2018-06-03T05:48:22.234Z,20.90
2018-06-03T05:54:28.217Z,21.10
2018-06-03T05:57:31.298Z,21.20
2018-06-03T06:00:34.381Z,21.30
2018-06-03T06:03:37.478Z,21.40
2018-06-03T06:06:40.587Z,21.70
2018-06-03T06:09:43.674Z,21.90
2018-06-03T06:12:46.753Z,22.20
2018-06-03T06:18:52.761Z,22.80
2018-06-03T06:21:55.833Z,23.00
2018-06-03T06:28:11.865Z,23.80
2018-06-03T06:31:25.233Z,24.00
2018-06-03T06:34:38.178Z,24.00
2018-06-03T06:37:44.605Z,23.70
2018-06-03T06:40:51.466Z,23.20
2018-06-03T06:43:58.462Z,22.80
2018-06-03T06:47:01.649Z,22.60
2018-06-03T06:50:04.862Z,22.60
2018-06-03T06:53:08.974Z,22.70
2018-06-03T06:56:12.138Z,22.80
2018-06-03T06:59:22.281Z,23.00
2018-06-03T07:02:32.132Z,23.50
2018-06-03T07:05:49.445Z,24.00
2018-06-03T07:08:52.573Z,25.40
2018-06-03T07:12:03.602Z,25.90
2018-06-03T07:15:10.026Z,25.90
2018-06-03T07:18:21.365Z,25.60
2018-06-03T07:21:35.093Z,25.10
2018-06-03T07:24:40.288Z,24.40
2018-06-03T07:27:49.418Z,23.90
2018-06-03T07:31:03.866Z,23.70
2018-06-03T07:47:37.023Z,22.90
2018-06-03T07:50:45.973Z,22.60
2018-06-03T07:53:52.570Z,22.40
2018-06-03T07:56:56.678Z,22.10
2018-06-03T07:59:59.782Z,22.20
2018-06-03T08:03:05.018Z,22.30
2018-06-03T08:06:13.326Z,22.50
2018-06-03T08:09:26.830Z,22.80
2018-06-03T08:15:51.579Z,23.00
2018-06-03T08:18:58.781Z,23.10
2018-06-03T08:22:01.974Z,23.30
2018-06-03T08:25:08.836Z,23.40
2018-06-03T08:28:15.921Z,23.50
2018-06-03T08:31:19.022Z,23.50
2018-06-03T08:34:25.802Z,23.80
2018-06-03T08:37:33.683Z,24.10
2018-06-03T08:40:44.233Z,24.30
2018-06-03T08:44:03.671Z,24.40
2018-06-03T08:47:14.965Z,24.30
2018-06-03T08:50:18.125Z,23.90
2018-06-03T08:53:21.293Z,23.50
2018-06-03T08:56:43.569Z,23.10
2018-06-03T08:59:46.732Z,22.70
2018-06-03T09:03:13.722Z,22.20
2018-06-03T09:06:21.285Z,22.00
2018-06-03T09:09:28.286Z,21.70
2018-06-03T09:12:31.493Z,21.70
2018-06-03T09:15:34.658Z,21.60
2018-06-03T09:18:37.850Z,21.70
2018-06-03T09:21:50.533Z,21.70
2018-06-03T09:24:57.791Z,21.90
2018-06-03T09:28:13.883Z,21.90
2018-06-03T09:31:23.039Z,22.10
2018-06-03T09:34:28.203Z,22.30
2018-06-03T09:40:58.780Z,22.90
2018-06-03T09:44:17.010Z,23.30
2018-06-03T09:47:34.785Z,23.80
2018-06-03T09:50:56.634Z,24.20
2018-06-03T09:54:06.898Z,24.80
2018-06-03T09:57:17.684Z,25.30
2018-06-03T10:00:33.129Z,25.60
2018-06-03T10:03:50.164Z,26.30
2018-06-03T10:06:53.258Z,27.00
2018-06-03T10:10:00.926Z,27.30
2018-06-03T10:16:34.690Z,27.40
2018-06-03T10:19:37.834Z,27.00
2018-06-03T10:22:40.914Z,27.00
2018-06-03T10:25:49.921Z,27.10
2018-06-03T10:28:53.012Z,27.30
2018-06-03T10:32:19.001Z,27.30
2018-06-03T10:35:25.670Z,27.30
2018-06-03T10:38:33.572Z,27.20
2018-06-03T10:41:36.814Z,26.90
2018-06-03T10:44:40.964Z,26.70
2018-06-03T10:47:51.605Z,26.70
2018-06-03T10:51:00.329Z,26.50
2018-06-03T10:54:07.646Z,26.50
2018-06-03T10:57:14.733Z,26.60
2018-06-03T11:00:25.248Z,27.00
2018-06-03T11:03:28.374Z,27.00
2018-06-03T11:09:59.273Z,26.70
2018-06-03T11:16:44.887Z,26.70
2018-06-03T11:19:48.050Z,26.80
2018-06-03T11:22:59.085Z,27.00
2018-06-03T11:26:08.122Z,27.00
2018-06-03T11:29:18.886Z,26.80
2018-06-03T11:32:29.057Z,26.30
2018-06-03T11:35:33.223Z,25.90
2018-06-03T11:38:36.389Z,25.70
2018-06-03T11:41:45.545Z,25.60
2018-06-03T11:44:48.689Z,25.40
2018-06-03T11:48:04.340Z,25.40
2018-06-03T11:51:07.500Z,25.20
2018-06-03T11:54:14.337Z,25.30
2018-06-03T11:57:20.963Z,25.20
2018-06-03T12:00:24.018Z,25.10
2018-06-03T12:03:32.390Z,25.00
2018-06-03T12:06:45.796Z,24.60
2018-06-03T12:09:48.894Z,24.80
2018-06-03T12:12:51.994Z,24.90
2018-06-03T12:15:55.066Z,25.00
2018-06-03T12:18:58.174Z,25.00
2018-06-03T12:22:01.255Z,24.80
2018-06-03T12:25:04.366Z,24.60
2018-06-03T12:28:07.449Z,24.50
2018-06-03T12:31:10.662Z,24.50
2018-06-03T12:34:13.737Z,24.40
2018-06-03T12:37:16.884Z,24.30
2018-06-03T12:40:19.957Z,24.30
2018-06-03T12:43:23.050Z,24.40
2018-06-03T12:46:26.158Z,24.50
2018-06-03T12:49:29.237Z,24.70
2018-06-03T12:52:32.330Z,24.80
2018-06-03T12:55:35.374Z,24.90
2018-06-03T12:58:38.454Z,24.80
2018-06-03T13:01:41.546Z,24.70
2018-06-03T13:04:44.618Z,24.70
2018-06-03T13:10:50.574Z,24.90
2018-06-03T13:13:53.642Z,24.80
2018-06-03T13:16:56.734Z,24.70
2018-06-03T13:19:59.813Z,24.60
2018-06-03T13:23:02.894Z,24.40
2018-06-03T13:26:05.974Z,24.20
2018-06-03T13:29:09.059Z,24.40
2018-06-03T13:32:12.136Z,24.40
2018-06-03T13:35:15.201Z,24.40
2018-06-03T13:38:18.285Z,24.40
2018-06-03T13:41:25.311Z,24.40
2018-06-03T13:44:28.953Z,24.20
2018-06-03T13:47:32.066Z,24.30
2018-06-03T13:50:35.168Z,24.50
2018-06-03T13:53:38.233Z,24.60
2018-06-03T13:56:41.309Z,25.00
2018-06-03T13:59:44.387Z,25.20
2018-06-03T14:02:47.479Z,25.30
2018-06-03T14:05:50.566Z,25.30
2018-06-03T14:08:54.025Z,25.00
2018-06-03T14:11:57.113Z,25.00
2018-06-03T14:15:00.177Z,25.00
2018-06-03T14:18:03.271Z,25.00
2018-06-03T14:21:06.613Z,25.00
2018-06-03T14:24:10.001Z,25.10
2018-06-03T14:27:13.069Z,25.20
2018-06-03T14:30:16.122Z,25.00
2018-06-03T14:33:19.231Z,25.00
2018-06-03T14:36:22.294Z,24.90
2018-06-03T14:39:25.381Z,24.70
2018-06-03T14:42:28.449Z,24.70
2018-06-03T14:45:31.521Z,24.70
2018-06-03T14:48:34.600Z,24.60
2018-06-03T14:51:37.678Z,24.50
2018-06-03T14:54:40.783Z,24.40
2018-06-03T14:57:43.845Z,24.30
2018-06-03T15:00:46.989Z,24.20
2018-06-03T15:03:50.074Z,24.20
2018-06-03T15:06:53.133Z,24.00
2018-06-03T15:09:56.222Z,23.80
2018-06-03T15:12:59.321Z,23.80
2018-06-03T15:16:02.393Z,23.70
2018-06-03T15:19:05.509Z,23.60
2018-06-03T15:25:11.478Z,23.60
2018-06-03T15:28:14.568Z,23.60
2018-06-03T15:31:17.650Z,23.50
2018-06-03T15:34:20.737Z,23.50
2018-06-03T15:37:23.826Z,23.30
2018-06-03T15:40:26.926Z,23.30
2018-06-03T15:43:30.042Z,23.20
2018-06-03T15:46:33.122Z,23.10
2018-06-03T15:49:36.234Z,23.00
2018-06-03T15:52:39.336Z,22.90
2018-06-03T15:55:42.427Z,22.70
2018-06-03T15:58:45.514Z,22.50
2018-06-03T16:01:48.610Z,22.30
2018-06-03T16:04:51.830Z,22.20
2018-06-03T16:07:55.135Z,22.10
2018-06-03T16:10:58.474Z,22.10
2018-06-03T16:14:01.823Z,22.20
2018-06-03T16:17:05.031Z,22.20
2018-06-03T16:20:08.334Z,22.30
2018-06-03T16:26:14.502Z,22.20
2018-06-03T16:29:17.707Z,22.10
2018-06-03T16:32:20.988Z,22.10
2018-06-03T16:38:27.263Z,22.10
2018-06-03T16:41:30.463Z,22.00
2018-06-03T16:47:36.598Z,22.20
2018-06-03T16:50:39.808Z,22.20
2018-06-03T16:53:43.051Z,22.20
2018-06-03T16:56:46.294Z,22.20
2018-06-03T16:59:49.555Z,22.10
2018-06-03T17:02:52.851Z,22.10
2018-06-03T17:05:56.047Z,22.00
2018-06-03T17:08:59.339Z,22.00
2018-06-03T17:12:02.603Z,22.00
2018-06-03T17:18:08.866Z,22.10
2018-06-03T17:21:12.218Z,22.00
2018-06-03T17:24:15.662Z,21.90
2018-06-03T17:27:19.458Z,21.80
2018-06-03T17:30:23.384Z,21.70
2018-06-03T17:36:30.874Z,21.60
2018-06-03T17:39:34.873Z,21.60
2018-06-03T17:42:39.071Z,21.50
2018-06-03T17:45:43.416Z,21.50
2018-06-03T17:48:47.506Z,21.40
2018-06-03T17:51:51.654Z,21.30
2018-06-03T17:54:58.796Z,21.30
2018-06-03T17:58:02.717Z,21.20
2018-06-03T18:01:05.950Z,21.10
2018-06-03T18:04:09.155Z,20.90
2018-06-03T18:07:12.355Z,20.80
2018-06-03T18:10:15.707Z,20.70
2018-06-03T18:13:18.918Z,20.70
2018-06-03T18:16:22.094Z,20.60
2018-06-03T18:19:25.336Z,20.50
2018-06-03T18:22:28.643Z,20.50
2018-06-03T18:25:31.771Z,20.40
2018-06-03T18:28:34.993Z,20.40
2018-06-03T18:31:38.210Z,20.30
2018-06-03T18:34:41.484Z,20.30
2018-06-03T18:37:44.699Z,20.30
2018-06-03T18:40:48.002Z,20.30
2018-06-03T18:43:51.190Z,20.30
2018-06-03T18:47:08.590Z,20.20
2018-06-03T18:50:11.923Z,20.20
2018-06-03T18:53:15.200Z,20.10
2018-06-03T18:56:18.623Z,20.10
2018-06-03T18:59:21.946Z,20.00
2018-06-03T19:02:25.139Z,20.00
2018-06-03T19:05:28.386Z,19.90
2018-06-03T19:08:31.615Z,19.80
2018-06-03T19:11:35.010Z,19.70
2018-06-03T19:17:41.175Z,19.50
2018-06-03T19:20:44.461Z,19.40
2018-06-03T19:23:47.610Z,19.30
2018-06-03T19:26:50.810Z,19.30
2018-06-03T19:29:54.060Z,19.30
2018-06-03T19:32:57.283Z,19.20
2018-06-03T19:36:00.531Z,19.20
2018-06-03T19:39:04.207Z,19.00
2018-06-03T19:42:07.487Z,18.90
2018-06-03T19:45:10.867Z,18.90
2018-06-03T19:48:14.083Z,18.80
2018-06-03T19:51:17.299Z,18.80
2018-06-03T19:54:20.591Z,18.80
2018-06-03T19:57:23.897Z,18.80
2018-06-03T20:00:27.175Z,18.80
2018-06-03T20:03:30.585Z,18.80
2018-06-03T20:06:33.872Z,18.80
2018-06-03T20:09:43.674Z,18.70
2018-06-03T20:12:46.919Z,18.70
2018-06-03T20:15:50.134Z,18.70
2018-06-03T20:18:53.314Z,18.60
2018-06-03T20:21:56.560Z,18.50
2018-06-03T20:28:02.714Z,18.50
2018-06-03T20:31:05.927Z,18.50
2018-06-03T20:34:09.194Z,18.50
2018-06-03T20:37:12.504Z,18.40
2018-06-03T20:40:15.709Z,18.40
2018-06-03T20:43:18.954Z,18.30
2018-06-03T20:46:22.278Z,18.30
2018-06-03T20:49:25.693Z,18.20
2018-06-03T20:52:28.983Z,18.20
2018-06-03T20:55:32.182Z,18.20
2018-06-03T20:58:35.398Z,18.20
2018-06-03T21:04:41.663Z,18.20
2018-06-03T21:07:44.925Z,18.10
2018-06-03T21:10:48.156Z,18.10
2018-06-03T21:13:51.358Z,18.00
2018-06-03T21:16:54.599Z,18.00
2018-06-03T21:19:57.751Z,18.00
2018-06-03T21:26:04.084Z,17.90
2018-06-03T21:29:07.280Z,17.90
2018-06-03T21:32:10.594Z,17.90
2018-06-03T21:35:14.950Z,17.80
2018-06-03T21:41:21.790Z,17.80
2018-06-03T21:44:27.436Z,17.80
2018-06-03T21:47:30.609Z,17.70
2018-06-03T21:50:33.851Z,17.70
2018-06-03T21:53:37.155Z,17.60
2018-06-03T21:56:40.423Z,17.50
2018-06-03T21:59:43.646Z,17.50
2018-06-03T22:02:47.022Z,17.40
2018-06-03T22:05:50.202Z,17.50
2018-06-03T22:08:53.443Z,17.40
2018-06-03T22:11:56.786Z,17.40
2018-06-03T22:15:00.098Z,17.40
2018-06-03T22:18:03.385Z,17.40
2018-06-03T22:21:06.606Z,17.30
2018-06-03T22:24:09.791Z,17.40
2018-06-03T22:27:13.158Z,17.40
2018-06-03T22:30:16.287Z,17.30
2018-06-03T22:33:19.650Z,17.30
2018-06-03T22:36:22.878Z,17.30
2018-06-03T22:39:26.150Z,17.30
2018-06-03T22:42:29.463Z,17.20
2018-06-03T22:45:32.659Z,17.20
2018-06-03T22:48:35.991Z,17.30
2018-06-03T22:51:39.157Z,17.30
2018-06-03T22:54:42.431Z,17.30
2018-06-03T22:57:52.076Z,17.30
2018-06-03T23:00:55.219Z,17.20
2018-06-03T23:03:58.449Z,17.20
2018-06-03T23:07:01.690Z,17.20
2018-06-03T23:10:05.002Z,17.20
2018-06-03T23:13:08.198Z,17.10
2018-06-03T23:16:11.433Z,17.10
2018-06-03T23:19:14.681Z,17.10
2018-06-03T23:22:17.994Z,17.10
2018-06-03T23:28:24.288Z,17.10
2018-06-03T23:34:30.486Z,17.00
2018-06-03T23:37:33.654Z,17.00
2018-06-03T23:40:36.901Z,17.00
2018-06-03T23:43:40.171Z,16.90
2018-06-03T23:46:43.500Z,16.90
2018-06-03T23:49:46.742Z,16.90
2018-06-03T23:52:49.951Z,16.90
2018-06-03T23:55:53.234Z,16.90
